Airfield :
LOGIN :

Register | Disclaimer

   EN    FR    IT 

 










Legend :    VFR   Marginal VFR   IFR   Intensive IFR   Very Intensive IFR
Visi :
Ceiling :
>= 8 km
>= 3000ft
5 to 8 km
1000 to 3000 ft
1500m to 5 km
500 to 1000 ft
800 to 1500m
200 to 500 ft
< 800m
< 200 ft
Symbols :   Thunderstorms  Fog  Heavy snow  Heavy precipitations  Wind > 20 kt
SIGMETs :     Misc.  Thunderstorms  Icing  Turbulence  Mountain Waves  Volcanic Ashes







- Airport Elevation : 359 ft
- IATA code : BVA
- Download approach charts


LFOB - Beauvais

CURRENT METAR :
  • 220930Z AUTO 22010KT CAVOK 16/09 Q1022 NOSIG

EXPIRED METARs :
  • 220900Z AUTO 22010KT CAVOK 15/08 Q1022 NOSIG
  • 220830Z AUTO 22008KT CAVOK 14/08 Q1022 NOSIG
  • 220800Z AUTO 22005KT 9999 FEW048 SCT110 13/09 Q1022 NOSIG
  • 220730Z AUTO 21005KT CAVOK 12/08 Q1022 NOSIG
  • 220700Z AUTO 19004KT 9999 FEW017 SCT100 BKN120 12/08 Q1022 NOSIG

TAF TAF LFOB
Valid from the 22 at 06:00 until the 23 at 06:00 UTC


220500Z 2206/2306 24006KT CAVOK
TEMPO 2216/2306 4000 RA
BECMG 2218/2220 12010KT
PROB40
TEMPO 2220/2306 2000 RADZ OVC004
BECMG 2300/2303 24010KT
ATIS : +33 3 44 11 49 28
No reported NOTAMs for that airfield.
1 SIGMET reported for the Paris FIR (LFFF) :
 
Severe icing
LFFF SIGMET 1 VALID 220630/221000 LFPW
LFFF PARIS FIR/UIR SEV ICE FCST WI N4845 W00015 - N5000 W00015 - N5030 E00030 - N4930 E00115 - N4845 W00015 FL080/200 MOV E 35KT NC=



MET'MAP, your aeronautical weather chart ! - Copyright ORBIFLY December 2007 - Disclaimer

ORBIFLY MET'MAP TEAM :

Programming & Development : Alexandra Zaïnal
Concept & Development : Baudouin d'Aumeries
Co-Development & Prog : Marc-Olivier Méhu
Technical & hardware support : Manuel Goepfert

Contact : metmap@orbifly.com




SOURCES & CREDITS :

   NOAA